sensor_id;sensor_type;location;lat;lon;timestamp;pressure;altitude;pressure_sealevel;temperature;humidity
24746;BME280;12845;52.042;6.838;2023-02-07T00:00:29;66719.88;;;-0.50;100.00
24746;BME280;12845;52.042;6.838;2023-02-07T00:07:46;66715.00;;;-0.59;100.00
24746;BME280;12845;52.042;6.838;2023-02-07T00:10:11;66716.09;;;-0.58;100.00
24746;BME280;12845;52.042;6.838;2023-02-07T00:12:36;66709.72;;;-0.66;100.00
24746;BME280;12845;52.042;6.838;2023-02-07T00:15:02;66699.66;;;-0.69;100.00
24746;BME280;12845;52.042;6.838;2023-02-07T00:17:27;66709.72;;;-0.66;100.00
24746;BME280;12845;52.042;6.838;2023-02-07T00:19:53;66710.66;;;-0.68;100.00
24746;BME280;12845;52.042;6.838;2023-02-07T00:22:18;66712.34;;;-0.66;100.00
24746;BME280;12845;52.042;6.838;2023-02-07T00:24:46;66698.69;;;-0.74;100.00
24746;BME280;12845;52.042;6.838;2023-02-07T00:27:11;66702.06;;;-0.71;100.00
24746;BME280;12845;52.042;6.838;2023-02-07T00:32:02;66700.16;;;-0.75;100.00
24746;BME280;12845;52.042;6.838;2023-02-07T00:34:27;66692.88;;;-0.82;100.00
24746;BME280;12845;52.042;6.838;2023-02-07T00:36:52;66690.25;;;-0.82;100.00
24746;BME280;12845;52.042;6.838;2023-02-07T00:39:18;66690.63;;;-0.84;100.00
24746;BME280;12845;52.042;6.838;2023-02-07T00:41:43;66690.63;;;-0.84;100.00
24746;BME280;12845;52.042;6.838;2023-02-07T00:44:09;66690.25;;;-0.82;100.00
24746;BME280;12845;52.042;6.838;2023-02-07T00:46:35;66675.50;;;-0.91;100.00
24746;BME280;12845;52.042;6.838;2023-02-07T00:49:01;66684.63;;;-0.87;100.00
24746;BME280;12845;52.042;6.838;2023-02-07T00:51:26;66685.78;;;-0.86;100.00
24746;BME280;12845;52.042;6.838;2023-02-07T00:53:55;66679.75;;;-0.96;100.00
24746;BME280;12845;52.042;6.838;2023-02-07T00:56:25;66679.59;;;-0.92;100.00
24746;BME280;12845;52.042;6.838;2023-02-07T00:58:51;66669.31;;;-0.96;100.00
24746;BME280;12845;52.042;6.838;2023-02-07T01:01:16;66678.25;;;-0.95;100.00
24746;BME280;12845;52.042;6.838;2023-02-07T01:06:07;66675.84;;;-1.00;100.00
24746;BME280;12845;52.042;6.838;2023-02-07T01:08:33;66661.06;;;-1.08;100.00
24746;BME280;12845;52.042;6.838;2023-02-07T01:13:24;66659.00;;;-1.15;100.00
24746;BME280;12845;52.042;6.838;2023-02-07T01:15:49;66650.22;;;-1.14;100.00
24746;BME280;12845;52.042;6.838;2023-02-07T01:20:39;66650.38;;;-1.18;100.00
24746;BME280;12845;52.042;6.838;2023-02-07T01:23:05;66654.50;;;-1.19;100.00
24746;BME280;12845;52.042;6.838;2023-02-07T01:25:30;66650.19;;;-1.21;100.00
24746;BME280;12845;52.042;6.838;2023-02-07T01:30:21;66654.31;;;-1.15;100.00
24746;BME280;12845;52.042;6.838;2023-02-07T01:32:46;66659.34;;;-1.17;100.00
24746;BME280;12845;52.042;6.838;2023-02-07T01:35:11;66645.72;;;-1.18;100.00
24746;BME280;12845;52.042;6.838;2023-02-07T01:37:37;66654.69;;;-1.17;100.00
24746;BME280;12845;52.042;6.838;2023-02-07T01:40:02;66649.25;;;-1.19;100.00
24746;BME280;12845;52.042;6.838;2023-02-07T01:42:27;66640.28;;;-1.27;100.00
24746;BME280;12845;52.042;6.838;2023-02-07T01:47:19;66643.44;;;-1.27;100.00
24746;BME280;12845;52.042;6.838;2023-02-07T01:49:45;66640.06;;;-1.30;100.00
24746;BME280;12845;52.042;6.838;2023-02-07T01:52:13;66632.44;;;-1.34;100.00
24746;BME280;12845;52.042;6.838;2023-02-07T01:54:40;66632.03;;;-1.40;100.00
24746;BME280;12845;52.042;6.838;2023-02-07T01:59:31;66618.38;;;-1.47;100.00
24746;BME280;12845;52.042;6.838;2023-02-07T02:01:58;66617.25;;;-1.48;100.00
24746;BME280;12845;52.042;6.838;2023-02-07T02:06:49;66608.28;;;-1.56;100.00
24746;BME280;12845;52.042;6.838;2023-02-07T02:09:15;66613.69;;;-1.54;100.00
24746;BME280;12845;52.042;6.838;2023-02-07T02:17:23;66611.25;;;-1.59;100.00
24746;BME280;12845;52.042;6.838;2023-02-07T02:20:05;66599.28;;;-1.65;100.00
24746;BME280;12845;52.042;6.838;2023-02-07T02:25:24;66609.41;;;-1.55;100.00
24746;BME280;12845;52.042;6.838;2023-02-07T02:38:27;66613.13;;;-1.54;100.00
24746;BME280;12845;52.042;6.838;2023-02-07T02:48:09;66596.88;;;-1.69;100.00
24746;BME280;12845;52.042;6.838;2023-02-07T02:53:00;66588.63;;;-1.74;100.00
24746;BME280;12845;52.042;6.838;2023-02-07T02:55:39;66577.41;;;-1.85;100.00
24746;BME280;12845;52.042;6.838;2023-02-07T03:10:24;66574.97;;;-1.89;100.00
24746;BME280;12845;52.042;6.838;2023-02-07T03:12:57;66571.22;;;-1.90;100.00
24746;BME280;12845;52.042;6.838;2023-02-07T03:17:56;66565.06;;;-1.96;100.00
24746;BME280;12845;52.042;6.838;2023-02-07T03:21:26;66566.19;;;-1.95;100.00
24746;BME280;12845;52.042;6.838;2023-02-07T03:23:18;66558.31;;;-2.02;100.00
24746;BME280;12845;52.042;6.838;2023-02-07T03:25:45;66544.31;;;-2.15;100.00
24746;BME280;12845;52.042;6.838;2023-02-07T03:30:37;66547.66;;;-2.12;100.00
24746;BME280;12845;52.042;6.838;2023-02-07T03:33:03;66549.91;;;-2.10;100.00
24746;BME280;12845;52.042;6.838;2023-02-07T03:35:33;66547.66;;;-2.12;100.00
24746;BME280;12845;52.042;6.838;2023-02-07T03:40:31;66543.34;;;-2.20;100.00
24746;BME280;12845;52.042;6.838;2023-02-07T03:43:00;66549.88;;;-2.17;100.00
24746;BME280;12845;52.042;6.838;2023-02-07T03:45:27;66524.69;;;-2.33;100.00
24746;BME280;12845;52.042;6.838;2023-02-07T03:47:53;66509.88;;;-2.48;100.00
24746;BME280;12845;52.042;6.838;2023-02-07T03:50:18;66518.09;;;-2.43;100.00
24746;BME280;12845;52.042;6.838;2023-02-07T03:52:43;66514.94;;;-2.44;100.00
24746;BME280;12845;52.042;6.838;2023-02-07T03:55:09;66490.47;;;-2.64;100.00
24746;BME280;12845;52.042;6.838;2023-02-07T03:57:34;66483.16;;;-2.70;100.00
24746;BME280;12845;52.042;6.838;2023-02-07T03:59:59;66478.13;;;-2.75;100.00
24746;BME280;12845;52.042;6.838;2023-02-07T04:02:25;66478.47;;;-2.77;100.00
24746;BME280;12845;52.042;6.838;2023-02-07T04:04:50;66481.47;;;-2.72;100.00
24746;BME280;12845;52.042;6.838;2023-02-07T04:07:15;66481.47;;;-2.72;100.00
24746;BME280;12845;52.042;6.838;2023-02-07T04:09:41;66475.13;;;-2.80;100.00
24746;BME280;12845;52.042;6.838;2023-02-07T04:16:56;66453.25;;;-3.00;100.00
24746;BME280;12845;52.042;6.838;2023-02-07T04:19:21;66463.91;;;-2.90;100.00
24746;BME280;12845;52.042;6.838;2023-02-07T04:24:12;66450.25;;;-3.05;100.00
24746;BME280;12845;52.042;6.838;2023-02-07T04:26:37;66444.47;;;-3.06;100.00
24746;BME280;12845;52.042;6.838;2023-02-07T04:31:28;66444.06;;;-3.11;100.00
24746;BME280;12845;52.042;6.838;2023-02-07T04:33:53;66441.84;;;-3.13;100.00
24746;BME280;12845;52.042;6.838;2023-02-07T04:36:18;66439.78;;;-3.12;100.00
24746;BME280;12845;52.042;6.838;2023-02-07T04:38:43;66435.50;;;-3.14;100.00
24746;BME280;12845;52.042;6.838;2023-02-07T04:41:09;66434.94;;;-3.14;100.00
24746;BME280;12845;52.042;6.838;2023-02-07T04:43:35;66436.63;;;-3.13;100.00
24746;BME280;12845;52.042;6.838;2023-02-07T04:48:25;66433.63;;;-3.18;100.00
24746;BME280;12845;52.042;6.838;2023-02-07T04:50:51;66436.22;;;-3.18;100.00
24746;BME280;12845;52.042;6.838;2023-02-07T04:53:16;66429.50;;;-3.24;100.00
24746;BME280;12845;52.042;6.838;2023-02-07T04:55:41;66420.75;;;-3.30;100.00
24746;BME280;12845;52.042;6.838;2023-02-07T04:58:06;66417.59;;;-3.30;100.00
24746;BME280;12845;52.042;6.838;2023-02-07T05:00:32;66410.28;;;-3.37;100.00
24746;BME280;12845;52.042;6.838;2023-02-07T05:02:58;66412.13;;;-3.40;100.00
24746;BME280;12845;52.042;6.838;2023-02-07T05:10:13;66399.25;;;-3.52;100.00
24746;BME280;12845;52.042;6.838;2023-02-07T05:12:39;66396.28;;;-3.50;100.00
24746;BME280;12845;52.042;6.838;2023-02-07T05:15:04;66404.66;;;-3.49;100.00
24746;BME280;12845;52.042;6.838;2023-02-07T05:17:30;66394.41;;;-3.54;100.00
24746;BME280;12845;52.042;6.838;2023-02-07T05:22:23;66387.09;;;-3.60;100.00
24746;BME280;12845;52.042;6.838;2023-02-07T05:24:49;66383.19;;;-3.64;100.00
24746;BME280;12845;52.042;6.838;2023-02-07T05:27:14;66380.59;;;-3.64;100.00
24746;BME280;12845;52.042;6.838;2023-02-07T05:29:39;66383.56;;;-3.66;100.00
24746;BME280;12845;52.042;6.838;2023-02-07T05:32:05;66386.91;;;-3.63;100.00
24746;BME280;12845;52.042;6.838;2023-02-07T05:34:48;66383.75;;;-3.64;100.00
24746;BME280;12845;52.042;6.838;2023-02-07T05:37:14;66378.72;;;-3.68;100.00
24746;BME280;12845;52.042;6.838;2023-02-07T05:39:39;66378.72;;;-3.68;100.00
24746;BME280;12845;52.042;6.838;2023-02-07T05:42:04;66376.47;;;-3.70;100.00
24746;BME280;12845;52.042;6.838;2023-02-07T05:44:29;66374.22;;;-3.72;100.00
24746;BME280;12845;52.042;6.838;2023-02-07T05:46:54;66374.22;;;-3.72;100.00
24746;BME280;12845;52.042;6.838;2023-02-07T05:51:45;66371.78;;;-3.77;100.00
24746;BME280;12845;52.042;6.838;2023-02-07T05:54:10;66372.72;;;-3.78;100.00
24746;BME280;12845;52.042;6.838;2023-02-07T05:56:35;66369.75;;;-3.76;100.00
24746;BME280;12845;52.042;6.838;2023-02-07T05:59:01;66368.06;;;-3.78;100.00
24746;BME280;12845;52.042;6.838;2023-02-07T06:01:26;66366.59;;;-3.77;100.00
24746;BME280;12845;52.042;6.838;2023-02-07T06:03:51;66362.66;;;-3.80;100.00
24746;BME280;12845;52.042;6.838;2023-02-07T06:06:17;66366.75;;;-3.81;100.00
24746;BME280;12845;52.042;6.838;2023-02-07T06:08:42;66359.66;;;-3.86;100.00
24746;BME280;12845;52.042;6.838;2023-02-07T06:11:07;66365.06;;;-3.83;100.00
24746;BME280;12845;52.042;6.838;2023-02-07T06:13:32;66362.47;;;-3.83;100.00
24746;BME280;12845;52.042;6.838;2023-02-07T06:18:23;66355.53;;;-3.92;100.00
24746;BME280;12845;52.042;6.838;2023-02-07T06:23:14;66347.69;;;-3.99;100.00
24746;BME280;12845;52.042;6.838;2023-02-07T06:25:39;66337.31;;;-3.99;100.00
24746;BME280;12845;52.042;6.838;2023-02-07T06:28:04;66351.81;;;-3.93;100.00
24746;BME280;12845;52.042;6.838;2023-02-07T06:30:29;66347.69;;;-3.99;100.00
24746;BME280;12845;52.042;6.838;2023-02-07T06:32:55;66339.50;;;-4.04;100.00
24746;BME280;12845;52.042;6.838;2023-02-07T06:35:20;66344.56;;;-3.99;100.00
24746;BME280;12845;52.042;6.838;2023-02-07T06:37:45;66344.91;;;-4.01;100.00
24746;BME280;12845;52.042;6.838;2023-02-07T06:40:10;66337.47;;;-4.03;100.00
24746;BME280;12845;52.042;6.838;2023-02-07T06:42:36;66335.78;;;-4.05;100.00
24746;BME280;12845;52.042;6.838;2023-02-07T06:45:01;66335.78;;;-4.05;100.00
24746;BME280;12845;52.042;6.838;2023-02-07T06:49:51;66338.00;;;-4.03;100.00
24746;BME280;12845;52.042;6.838;2023-02-07T06:52:17;66326.06;;;-4.16;100.00
24746;BME280;12845;52.042;6.838;2023-02-07T06:54:42;66323.47;;;-4.16;100.00
24746;BME280;12845;52.042;6.838;2023-02-07T06:57:07;66330.91;;;-4.14;100.00
24746;BME280;12845;52.042;6.838;2023-02-07T06:59:32;66329.97;;;-4.13;100.00
24746;BME280;12845;52.042;6.838;2023-02-07T07:01:58;66329.41;;;-4.13;100.00
24746;BME280;12845;52.042;6.838;2023-02-07T07:04:24;66337.63;;;-4.08;100.00
24746;BME280;12845;52.042;6.838;2023-02-07T07:06:50;66335.59;;;-4.07;100.00
24746;BME280;12845;52.042;6.838;2023-02-07T07:09:15;66330.19;;;-4.10;100.00
24746;BME280;12845;52.042;6.838;2023-02-07T07:11:40;66335.59;;;-4.07;100.00
24746;BME280;12845;52.042;6.838;2023-02-07T07:14:08;66337.63;;;-4.08;100.00
24746;BME280;12845;52.042;6.838;2023-02-07T07:16:34;66332.44;;;-4.08;100.00
24746;BME280;12845;52.042;6.838;2023-02-07T07:18:59;66327.72;;;-4.15;100.00
24746;BME280;12845;52.042;6.838;2023-02-07T07:21:24;66320.09;;;-4.19;100.00
24746;BME280;12845;52.042;6.838;2023-02-07T07:23:51;66329.22;;;-4.16;100.00
24746;BME280;12845;52.042;6.838;2023-02-07T07:26:17;66335.94;;;-4.10;100.00
24746;BME280;12845;52.042;6.838;2023-02-07T07:28:42;66335.03;;;-4.08;100.00
24746;BME280;12845;52.042;6.838;2023-02-07T07:31:08;66335.78;;;-4.05;100.00
24746;BME280;12845;52.042;6.838;2023-02-07T07:33:33;66339.50;;;-4.04;100.00
24746;BME280;12845;52.042;6.838;2023-02-07T07:35:59;66347.69;;;-3.99;100.00
24746;BME280;12845;52.042;6.838;2023-02-07T07:38:25;66339.16;;;-4.02;100.00
24746;BME280;12845;52.042;6.838;2023-02-07T07:40:50;66336.69;;;-4.06;100.00
24746;BME280;12845;52.042;6.838;2023-02-07T07:43:15;66349.03;;;-3.95;100.00
24746;BME280;12845;52.042;6.838;2023-02-07T07:45:41;66333.34;;;-4.10;100.00
24746;BME280;12845;52.042;6.838;2023-02-07T07:48:06;66327.94;;;-4.12;100.00
24746;BME280;12845;52.042;6.838;2023-02-07T07:50:31;66350.34;;;-3.92;100.00
24746;BME280;12845;52.042;6.838;2023-02-07T07:52:56;66368.25;;;-3.75;100.00
24746;BME280;12845;52.042;6.838;2023-02-07T07:55:22;66375.34;;;-3.71;100.00
24746;BME280;12845;52.042;6.838;2023-02-07T07:57:47;66373.13;;;-3.73;100.00
24746;BME280;12845;52.042;6.838;2023-02-07T08:00:13;66375.34;;;-3.71;100.00
24746;BME280;12845;52.042;6.838;2023-02-07T08:02:39;66381.72;;;-3.63;100.00
24746;BME280;12845;52.042;6.838;2023-02-07T08:05:04;66388.25;;;-3.59;100.00
24746;BME280;12845;52.042;6.838;2023-02-07T08:07:30;66390.69;;;-3.55;100.00
24746;BME280;12845;52.042;6.838;2023-02-07T08:09:55;66406.38;;;-3.41;100.00
24746;BME280;12845;52.042;6.838;2023-02-07T08:12:20;66419.06;;;-3.31;100.00
24746;BME280;12845;52.042;6.838;2023-02-07T08:17:10;66432.88;;;-3.21;100.00
24746;BME280;12845;52.042;6.838;2023-02-07T08:19:36;66433.63;;;-3.18;100.00
24746;BME280;12845;52.042;6.838;2023-02-07T08:22:02;66445.75;;;-3.09;100.00
24746;BME280;12845;52.042;6.838;2023-02-07T08:26:52;66473.06;;;-2.80;100.00
24746;BME280;12845;52.042;6.838;2023-02-07T08:29:18;66489.91;;;-2.64;100.00
24746;BME280;12845;52.042;6.838;2023-02-07T08:31:43;66498.69;;;-2.59;100.00
24746;BME280;12845;52.042;6.838;2023-02-07T08:34:08;66510.63;;;-2.45;100.00
24746;BME280;12845;52.042;6.838;2023-02-07T08:36:36;66520.72;;;-2.36;100.00
24746;BME280;12845;52.042;6.838;2023-02-07T08:39:01;66537.56;;;-2.21;100.00
24746;BME280;12845;52.042;6.838;2023-02-07T08:41:26;66542.63;;;-2.16;100.00
24746;BME280;12845;52.042;6.838;2023-02-07T08:43:51;66551.59;;;-2.08;100.00
24746;BME280;12845;52.042;6.838;2023-02-07T08:46:17;66559.81;;;-2.03;100.00
24746;BME280;12845;52.042;6.838;2023-02-07T08:51:07;66582.81;;;-1.82;100.00
24746;BME280;12845;52.042;6.838;2023-02-07T08:56:00;66604.34;;;-1.60;100.00
24746;BME280;12845;52.042;6.838;2023-02-07T08:58:25;66617.25;;;-1.48;100.00
24746;BME280;12845;52.042;6.838;2023-02-07T09:00:51;66626.81;;;-1.40;100.00
24746;BME280;12845;52.042;6.838;2023-02-07T09:05:42;66650.38;;;-1.18;100.00
24746;BME280;12845;52.042;6.838;2023-02-07T09:08:07;66656.00;;;-1.13;100.00
24746;BME280;12845;52.042;6.838;2023-02-07T09:10:32;66663.31;;;-1.06;100.00
24746;BME280;12845;52.042;6.838;2023-02-07T09:12:57;66671.72;;;-0.99;100.00
24746;BME280;12845;52.042;6.838;2023-02-07T09:15:23;66689.16;;;-0.83;100.00
24746;BME280;12845;52.042;6.838;2023-02-07T09:20:13;66703.75;;;-0.70;100.00
24746;BME280;12845;52.042;6.838;2023-02-07T09:22:39;66707.69;;;-0.66;100.00
24746;BME280;12845;52.042;6.838;2023-02-07T09:25:23;66723.22;;;-0.54;100.00
24746;BME280;12845;52.042;6.838;2023-02-07T09:32:39;66749.63;;;-0.30;100.00
24746;BME280;12845;52.042;6.838;2023-02-07T09:35:04;66767.63;;;-0.14;100.00
24746;BME280;12845;52.042;6.838;2023-02-07T09:39:57;66784.69;;;0.04;100.00
24746;BME280;12845;52.042;6.838;2023-02-07T09:44:53;66813.91;;;0.31;100.00
24746;BME280;12845;52.042;6.838;2023-02-07T09:47:21;66817.84;;;0.34;100.00
24746;BME280;12845;52.042;6.838;2023-02-07T09:49:57;66813.34;;;0.30;100.00
24746;BME280;12845;52.042;6.838;2023-02-07T09:54:50;66843.72;;;0.58;100.00
24746;BME280;12845;52.042;6.838;2023-02-07T09:57:27;66839.22;;;0.54;100.00
24746;BME280;12845;52.042;6.838;2023-02-07T10:04:56;66855.56;;;0.76;100.00
24746;BME280;12845;52.042;6.838;2023-02-07T10:07:22;66880.28;;;0.91;100.00
24746;BME280;12845;52.042;6.838;2023-02-07T10:12:17;66891.53;;;1.01;100.00
24746;BME280;12845;52.042;6.838;2023-02-07T10:26:58;66938.81;;;1.44;100.00
24746;BME280;12845;52.042;6.838;2023-02-07T10:39:30;66972.97;;;1.80;100.00
24746;BME280;12845;52.042;6.838;2023-02-07T10:41:59;66984.97;;;1.86;100.00
24746;BME280;12845;52.042;6.838;2023-02-07T10:47:02;66970.72;;;1.78;100.00
24746;BME280;12845;52.042;6.838;2023-02-07T10:49:29;66974.84;;;1.77;100.00
24746;BME280;12845;52.042;6.838;2023-02-07T10:52:00;66982.56;;;1.89;100.00
24746;BME280;12845;52.042;6.838;2023-02-07T10:56:53;67003.00;;;2.02;100.00
24746;BME280;12845;52.042;6.838;2023-02-07T11:06:58;67038.66;;;2.30;100.00
24746;BME280;12845;52.042;6.838;2023-02-07T11:11:50;67027.03;;;2.29;100.00
24746;BME280;12845;52.042;6.838;2023-02-07T11:14:17;67020.84;;;2.23;100.00
24746;BME280;12845;52.042;6.838;2023-02-07T11:21:39;67045.06;;;2.45;100.00
24746;BME280;12845;52.042;6.838;2023-02-07T11:24:13;67052.97;;;2.53;100.00
24746;BME280;12845;52.042;6.838;2023-02-07T11:26:47;67060.84;;;2.60;100.00
24746;BME280;12845;52.042;6.838;2023-02-07T11:29:16;67057.09;;;2.52;100.00
24746;BME280;12845;52.042;6.838;2023-02-07T11:31:42;67070.03;;;2.63;100.00
24746;BME280;12845;52.042;6.838;2023-02-07T11:39:21;67069.88;;;2.68;100.00
24746;BME280;12845;52.042;6.838;2023-02-07T11:41:59;67082.84;;;2.80;100.00
24746;BME280;12845;52.042;6.838;2023-02-07T11:49:26;67082.28;;;2.79;100.00
24746;BME280;12845;52.042;6.838;2023-02-07T11:51:52;67094.09;;;2.83;100.00
24746;BME280;12845;52.042;6.838;2023-02-07T11:54:18;67106.69;;;2.97;100.00
24746;BME280;12845;52.042;6.838;2023-02-07T11:56:47;67118.31;;;3.05;100.00
24746;BME280;12845;52.042;6.838;2023-02-07T11:59:15;67135.25;;;3.20;100.00
24746;BME280;12845;52.042;6.838;2023-02-07T12:01:41;67132.63;;;3.20;100.00
24746;BME280;12845;52.042;6.838;2023-02-07T12:04:14;67125.66;;;3.19;100.00
24746;BME280;12845;52.042;6.838;2023-02-07T12:11:31;67163.63;;;3.48;100.00
24746;BME280;12845;52.042;6.838;2023-02-07T12:21:32;67194.47;;;3.81;100.00
24746;BME280;12845;52.042;6.838;2023-02-07T12:26:28;67203.69;;;3.84;100.00
24746;BME280;12845;52.042;6.838;2023-02-07T12:29:03;67213.66;;;3.98;100.00
24746;BME280;12845;52.042;6.838;2023-02-07T12:31:44;67206.88;;;3.92;100.00
24746;BME280;12845;52.042;6.838;2023-02-07T12:34:19;67205.75;;;3.91;100.00
24746;BME280;12845;52.042;6.838;2023-02-07T12:49:03;67248.63;;;4.30;100.00
24746;BME280;12845;52.042;6.838;2023-02-07T13:18:39;67371.16;;;5.41;100.00
24746;BME280;12845;52.042;6.838;2023-02-07T13:21:08;67333.31;;;5.07;100.00
24746;BME280;12845;52.042;6.838;2023-02-07T13:23:39;67328.22;;;5.02;100.00
24746;BME280;12845;52.042;6.838;2023-02-07T13:26:09;67325.97;;;5.00;100.00
24746;BME280;12845;52.042;6.838;2023-02-07T13:28:43;67346.88;;;5.19;100.00
24746;BME280;12845;52.042;6.838;2023-02-07T13:31:10;67351.00;;;5.25;100.00
24746;BME280;12845;52.042;6.838;2023-02-07T13:33:38;67376.22;;;5.46;100.00
24746;BME280;12845;52.042;6.838;2023-02-07T13:36:15;67379.63;;;5.49;100.00
24746;BME280;12845;52.042;6.838;2023-02-07T13:41:21;67388.66;;;5.57;100.00
24746;BME280;12845;52.042;6.838;2023-02-07T13:53:54;67431.81;;;5.98;100.00
24746;BME280;12845;52.042;6.838;2023-02-07T13:59:24;67423.88;;;5.84;100.00
24746;BME280;12845;52.042;6.838;2023-02-07T14:02:02;67423.88;;;5.84;100.00
24746;BME280;12845;52.042;6.838;2023-02-07T14:04:29;67420.88;;;5.86;100.00
24746;BME280;12845;52.042;6.838;2023-02-07T14:07:13;67414.09;;;5.80;100.00
24746;BME280;12845;52.042;6.838;2023-02-07T14:09:46;67431.81;;;5.98;100.00
24746;BME280;12845;52.042;6.838;2023-02-07T14:12:17;67449.16;;;6.12;100.00
24746;BME280;12845;52.042;6.838;2023-02-07T14:14:43;67461.59;;;6.23;100.00
24746;BME280;12845;52.042;6.838;2023-02-07T14:17:10;67455.38;;;6.17;100.00
24746;BME280;12845;52.042;6.838;2023-02-07T14:24:29;67453.31;;;6.10;100.00
24746;BME280;12845;52.042;6.838;2023-02-07T14:26:56;67423.69;;;5.88;100.00
24746;BME280;12845;52.042;6.838;2023-02-07T14:34:22;67425.97;;;5.91;100.00
24746;BME280;12845;52.042;6.838;2023-02-07T14:36:50;67433.31;;;5.97;100.00
24746;BME280;12845;52.042;6.838;2023-02-07T14:41:45;67438.97;;;5.95;100.00
24746;BME280;12845;52.042;6.838;2023-02-07T14:46:55;67426.53;;;5.91;100.00
24746;BME280;12845;52.042;6.838;2023-02-07T14:51:48;67410.13;;;5.76;100.00
24746;BME280;12845;52.042;6.838;2023-02-07T14:54:15;67406.19;;;5.73;100.00
24746;BME280;12845;52.042;6.838;2023-02-07T14:56:49;67409.19;;;5.71;100.00
24746;BME280;12845;52.042;6.838;2023-02-07T14:59:25;67394.88;;;5.62;100.00
24746;BME280;12845;52.042;6.838;2023-02-07T15:01:52;67395.25;;;5.68;100.00
24746;BME280;12845;52.042;6.838;2023-02-07T15:04:17;67413.72;;;5.75;100.00
24746;BME280;12845;52.042;6.838;2023-02-07T15:09:20;67410.88;;;5.72;100.00
24746;BME280;12845;52.042;6.838;2023-02-07T15:11:45;67397.88;;;5.60;100.00
24746;BME280;12845;52.042;6.838;2023-02-07T15:23:59;67352.13;;;5.26;100.00
24746;BME280;12845;52.042;6.838;2023-02-07T15:31:17;67318.63;;;4.93;100.00
24746;BME280;12845;52.042;6.838;2023-02-07T15:36:30;67301.69;;;4.78;100.00
24746;BME280;12845;52.042;6.838;2023-02-07T15:46:11;67298.50;;;4.78;100.00
24746;BME280;12845;52.042;6.838;2023-02-07T15:51:02;67303.00;;;4.74;100.00
24746;BME280;12845;52.042;6.838;2023-02-07T15:53:28;67287.19;;;4.60;100.00
24746;BME280;12845;52.042;6.838;2023-02-07T15:58:27;67269.69;;;4.44;100.00
24746;BME280;12845;52.042;6.838;2023-02-07T16:03:22;67244.88;;;4.22;100.00
24746;BME280;12845;52.042;6.838;2023-02-07T16:06:04;67225.50;;;4.09;100.00
24746;BME280;12845;52.042;6.838;2023-02-07T16:16:09;67196.16;;;3.82;100.00
24746;BME280;12845;52.042;6.838;2023-02-07T16:21:02;67185.63;;;3.75;100.00
24746;BME280;12845;52.042;6.838;2023-02-07T16:23:28;67178.13;;;3.66;100.00
24746;BME280;12845;52.042;6.838;2023-02-07T16:25:53;67167.59;;;3.52;100.00
24746;BME280;12845;52.042;6.838;2023-02-07T16:28:22;67157.44;;;3.43;100.00
24746;BME280;12845;52.042;6.838;2023-02-07T16:30:48;67153.28;;;3.36;100.00
24746;BME280;12845;52.042;6.838;2023-02-07T16:33:13;67142.78;;;3.29;100.00
24746;BME280;12845;52.042;6.838;2023-02-07T16:38:03;67118.50;;;3.07;100.00
24746;BME280;12845;52.042;6.838;2023-02-07T16:40:28;67101.44;;;2.97;100.00
24746;BME280;12845;52.042;6.838;2023-02-07T16:42:54;67087.53;;;2.79;100.00
24746;BME280;12845;52.042;6.838;2023-02-07T16:47:45;67058.22;;;2.53;100.00
24746;BME280;12845;52.042;6.838;2023-02-07T16:52:36;67041.13;;;2.35;100.00
24746;BME280;12845;52.042;6.838;2023-02-07T16:55:01;67031.53;;;2.26;100.00
24746;BME280;12845;52.042;6.838;2023-02-07T16:57:26;67022.16;;;2.20;100.00
24746;BME280;12845;52.042;6.838;2023-02-07T17:02:16;66991.94;;;1.88;100.00
24746;BME280;12845;52.042;6.838;2023-02-07T17:04:42;66966.97;;;1.70;100.00
24746;BME280;12845;52.042;6.838;2023-02-07T17:07:08;66962.47;;;1.66;100.00
24746;BME280;12845;52.042;6.838;2023-02-07T17:09:34;66951.22;;;1.55;100.00
24746;BME280;12845;52.042;6.838;2023-02-07T17:12:00;66939.94;;;1.45;100.00
24746;BME280;12845;52.042;6.838;2023-02-07T17:14:25;66927.00;;;1.33;100.00
24746;BME280;12845;52.042;6.838;2023-02-07T17:21:42;66906.16;;;1.15;100.00
24746;BME280;12845;52.042;6.838;2023-02-07T17:24:08;66888.53;;;0.96;100.00
24746;BME280;12845;52.042;6.838;2023-02-07T17:26:33;66881.22;;;0.89;100.00
24746;BME280;12845;52.042;6.838;2023-02-07T17:28:59;66862.28;;;0.75;100.00
24746;BME280;12845;52.042;6.838;2023-02-07T17:31:24;66849.16;;;0.67;100.00
24746;BME280;12845;52.042;6.838;2023-02-07T17:33:49;66839.06;;;0.58;100.00
24746;BME280;12845;52.042;6.838;2023-02-07T17:36:15;66838.66;;;0.53;100.00
24746;BME280;12845;52.042;6.838;2023-02-07T17:38:41;66825.16;;;0.41;100.00
24746;BME280;12845;52.042;6.838;2023-02-07T17:41:13;66823.47;;;0.39;100.00
24746;BME280;12845;52.042;6.838;2023-02-07T17:43:44;66818.78;;;0.33;100.00
24746;BME280;12845;52.042;6.838;2023-02-07T17:46:16;66802.69;;;0.20;100.00
24746;BME280;12845;52.042;6.838;2023-02-07T17:48:42;66790.88;;;0.10;100.00
24746;BME280;12845;52.042;6.838;2023-02-07T17:51:07;66788.59;;;0.08;100.00
24746;BME280;12845;52.042;6.838;2023-02-07T17:53:33;66780.75;;;0.01;100.00
24746;BME280;12845;52.042;6.838;2023-02-07T17:55:58;66772.31;;;-0.07;100.00
24746;BME280;12845;52.042;6.838;2023-02-07T17:58:23;66761.06;;;-0.17;100.00
24746;BME280;12845;52.042;6.838;2023-02-07T18:05:40;66754.69;;;-0.26;100.00
24746;BME280;12845;52.042;6.838;2023-02-07T18:12:56;66739.16;;;-0.37;100.00
24746;BME280;12845;52.042;6.838;2023-02-07T18:15:22;66730.72;;;-0.45;100.00
24746;BME280;12845;52.042;6.838;2023-02-07T18:17:48;66723.97;;;-0.51;100.00
24746;BME280;12845;52.042;6.838;2023-02-07T18:22:38;66715.00;;;-0.59;100.00
24746;BME280;12845;52.042;6.838;2023-02-07T18:25:04;66708.81;;;-0.65;100.00
24746;BME280;12845;52.042;6.838;2023-02-07T18:27:29;66700.94;;;-0.72;100.00
24746;BME280;12845;52.042;6.838;2023-02-07T18:29:55;66702.44;;;-0.73;100.00
24746;BME280;12845;52.042;6.838;2023-02-07T18:32:20;66700.38;;;-0.73;100.00
24746;BME280;12845;52.042;6.838;2023-02-07T18:34:46;66699.25;;;-0.74;100.00
24746;BME280;12845;52.042;6.838;2023-02-07T18:37:11;66695.13;;;-0.80;100.00